Time;durP1;ratioP1;P1;durP2;ratioP2;P2;SDS_P1;SDS_P2;PMS_P1;PMS_P2;Temp;Humidity;BMP_temperature;BMP_pressure;BME280_temperature;BME280_humidity;BME280_pressure;Samples;Min_cycle;Max_cycle;Signal;HPM_P1;HPM_P2
2022/02/11 00:01:19;;;;;;;0.40;0.20;;;8.80;99.90;;;;;;4990177;28;20438;-70
2022/02/11 00:08:06;;;;;;;0.40;0.20;;;8.70;99.90;;;;;;4991557;28;20906;-71
2022/02/11 00:10:32;;;;;;;0.40;0.20;;;8.60;99.90;;;;;;4989948;28;20434;-71
2022/02/11 00:12:58;;;;;;;0.40;0.20;;;8.60;99.90;;;;;;4974028;28;20402;-71
2022/02/11 00:17:53;;;;;;;0.40;0.20;;;8.60;99.90;;;;;;4991324;28;20863;-71
2022/02/11 00:20:19;;;;;;;0.40;0.20;;;8.50;99.90;;;;;;4990636;28;20801;-71
2022/02/11 00:22:45;;;;;;;0.40;0.20;;;8.50;99.90;;;;;;4990874;28;20469;-71
2022/02/11 00:25:10;;;;;;;0.40;0.20;;;8.40;99.90;;;;;;4990834;28;20498;-71
2022/02/11 00:36:01;;;;;;;0.40;0.20;;;8.30;99.90;;;;;;4990959;28;20429;-69
2022/02/11 00:38:06;;;;;;;0.40;0.20;;;8.20;99.90;;;;;;4983732;28;20824;-70
2022/02/11 00:43:50;;;;;;;0.40;0.20;;;8.20;99.90;;;;;;4991245;28;20390;-70
2022/02/11 00:46:03;;;;;;;0.40;0.20;;;8.20;99.90;;;;;;4989452;28;20485;-70
2022/02/11 01:04:40;;;;;;;0.40;0.20;;;8.20;99.90;;;;;;4990726;28;20704;-69
2022/02/11 01:07:08;;;;;;;0.40;0.28;;;8.10;99.90;;;;;;4989732;28;20386;-69
2022/02/11 01:09:34;;;;;;;0.40;0.20;;;7.90;99.90;;;;;;4990562;28;20469;-69
2022/02/11 01:12:03;;;;;;;0.60;0.50;;;7.80;99.90;;;;;;4993395;28;20414;-69
2022/02/11 01:17:07;;;;;;;0.40;0.20;;;7.90;99.90;;;;;;4993419;28;20387;-70
2022/02/11 01:19:43;;;;;;;0.40;0.20;;;7.90;99.90;;;;;;4994297;28;20393;-70
2022/02/11 01:22:24;;;;;;;0.40;0.30;;;7.80;99.90;;;;;;4993296;28;20398;-70
2022/02/11 01:54:09;;;;;;;0.40;0.20;;;7.60;99.90;;;;;;4977197;28;20783;-72
2022/02/11 02:12:38;;;;;;;0.40;0.30;;;7.20;99.90;;;;;;4993056;28;20788;-73
2022/02/11 02:18:33;;;;;;;0.40;0.20;;;7.10;99.90;;;;;;4992255;28;20387;-73
2022/02/11 02:57:54;;;;;;;0.40;0.20;;;6.70;99.90;;;;;;4992410;28;20409;-72
2022/02/11 05:00:14;;;;;;;0.40;0.20;;;4.40;99.90;;;;;;4994243;28;20412;-78
2022/02/11 05:02:47;;;;;;;0.40;0.20;;;4.30;99.90;;;;;;4994798;28;20389;-78
2022/02/11 05:05:16;;;;;;;0.40;0.20;;;4.30;99.90;;;;;;4994246;28;20413;-77
2022/02/11 05:07:42;;;;;;;0.40;0.20;;;4.40;99.90;;;;;;4994400;28;20891;-77
2022/02/11 05:10:11;;;;;;;0.40;0.20;;;4.40;99.90;;;;;;4993468;28;20434;-77
2022/02/11 05:12:37;;;;;;;0.40;0.20;;;4.30;99.90;;;;;;4977003;28;20401;-75
2022/02/11 05:15:09;;;;;;;0.40;0.20;;;4.30;99.90;;;;;;4976190;28;20394;-76
2022/02/11 05:17:39;;;;;;;0.40;0.20;;;4.40;99.90;;;;;;4994550;28;20461;-78
2022/02/11 05:20:06;;;;;;;0.40;0.20;;;4.30;99.90;;;;;;4993014;28;20823;-78
2022/02/11 05:22:32;;;;;;;0.40;0.20;;;4.30;99.90;;;;;;4994289;28;20398;-78
2022/02/11 05:24:59;;;;;;;0.40;0.20;;;4.40;99.90;;;;;;4994534;28;20391;-79
2022/02/11 05:27:25;;;;;;;0.40;0.20;;;4.30;99.90;;;;;;4994049;28;20383;-78
2022/02/11 05:29:51;;;;;;;0.40;0.20;;;4.40;99.90;;;;;;4994019;28;20867;-78
2022/02/11 05:32:17;;;;;;;0.40;0.20;;;4.40;99.90;;;;;;4992878;28;20416;-79
2022/02/11 05:34:43;;;;;;;0.40;0.20;;;4.40;99.90;;;;;;4994130;28;20858;-79
2022/02/11 05:37:08;;;;;;;0.40;0.20;;;4.40;99.90;;;;;;4985567;28;20448;-76
2022/02/11 05:39:34;;;;;;;0.40;0.20;;;4.40;99.90;;;;;;4972130;28;20403;-78
2022/02/11 05:42:00;;;;;;;0.40;0.20;;;4.40;99.90;;;;;;4988073;28;20406;-77
2022/02/11 05:44:25;;;;;;;0.40;0.20;;;4.40;99.90;;;;;;4989111;28;20865;-77
2022/02/11 05:46:51;;;;;;;0.40;0.40;;;4.30;99.90;;;;;;4986912;28;20548;-78
2022/02/11 05:49:17;;;;;;;0.70;0.50;;;4.40;99.90;;;;;;4990603;28;20387;-77
2022/02/11 05:51:44;;;;;;;0.40;0.20;;;4.30;99.90;;;;;;4986276;28;20416;-77
2022/02/11 05:54:09;;;;;;;0.40;0.20;;;4.30;99.90;;;;;;4978341;28;20385;-77
2022/02/11 05:56:35;;;;;;;0.40;0.20;;;4.40;99.90;;;;;;4963492;28;20451;-77
2022/02/11 05:59:01;;;;;;;0.40;0.20;;;4.30;99.90;;;;;;4974335;28;20391;-77
2022/02/11 06:01:26;;;;;;;0.40;0.20;;;4.30;99.90;;;;;;4973564;28;20431;-76
2022/02/11 06:03:52;;;;;;;0.40;0.40;;;4.30;99.90;;;;;;4973713;28;20927;-76
2022/02/11 06:06:18;;;;;;;0.40;0.20;;;4.30;99.90;;;;;;4972886;28;20480;-76
2022/02/11 06:08:44;;;;;;;0.40;0.20;;;4.30;99.90;;;;;;4984049;28;20491;-76
2022/02/11 06:11:09;;;;;;;0.40;0.20;;;4.30;99.90;;;;;;4981852;28;20472;-76
2022/02/11 06:13:35;;;;;;;0.40;0.20;;;4.30;99.90;;;;;;4990512;28;20402;-76
2022/02/11 06:16:01;;;;;;;0.40;0.20;;;4.30;99.90;;;;;;4992961;28;20458;-76
2022/02/11 06:18:27;;;;;;;0.40;0.20;;;4.20;99.90;;;;;;4975731;28;20390;-77
2022/02/11 06:20:53;;;;;;;0.40;0.20;;;4.30;99.90;;;;;;4992440;28;20391;-77
2022/02/11 06:23:18;;;;;;;0.40;0.20;;;4.30;99.90;;;;;;4992420;28;20937;-75
2022/02/11 06:25:44;;;;;;;0.40;0.20;;;4.30;99.90;;;;;;4974786;28;20925;-74
2022/02/11 06:28:11;;;;;;;0.40;0.20;;;4.30;99.90;;;;;;4975683;28;20436;-74
2022/02/11 06:30:38;;;;;;;0.40;0.20;;;4.20;99.90;;;;;;4992871;28;20421;-75
2022/02/11 06:33:04;;;;;;;0.40;0.20;;;4.20;99.90;;;;;;4974314;28;20723;-75
2022/02/11 06:35:34;;;;;;;0.40;0.20;;;4.00;99.90;;;;;;4992905;28;20394;-75
2022/02/11 06:38:01;;;;;;;0.40;0.20;;;4.20;99.90;;;;;;4992123;28;20381;-76
2022/02/11 06:40:30;;;;;;;0.40;0.30;;;4.00;99.90;;;;;;4992584;28;20406;-76
2022/02/11 06:42:57;;;;;;;0.40;0.20;;;4.00;99.90;;;;;;4992137;28;20418;-75
2022/02/11 06:45:24;;;;;;;0.40;0.20;;;4.00;99.90;;;;;;4992617;28;20388;-76
2022/02/11 06:47:50;;;;;;;0.40;0.20;;;4.00;99.90;;;;;;4975195;28;20390;-75
2022/02/11 06:50:16;;;;;;;1.10;0.90;;;4.10;99.90;;;;;;4973579;28;20481;-74
2022/02/11 06:52:42;;;;;;;0.40;0.20;;;4.00;99.90;;;;;;4992531;28;20391;-75
2022/02/11 06:55:09;;;;;;;0.40;0.20;;;4.00;99.90;;;;;;4992023;28;20743;-74
2022/02/11 06:57:35;;;;;;;0.40;0.20;;;4.10;99.90;;;;;;4992694;28;20390;-74
2022/02/11 07:00:02;;;;;;;0.40;0.30;;;4.10;99.90;;;;;;4975043;28;20486;-74
2022/02/11 07:02:29;;;;;;;0.40;0.30;;;4.20;99.90;;;;;;4991660;28;20445;-74
2022/02/11 07:04:56;;;;;;;0.40;0.20;;;4.00;99.90;;;;;;4974932;28;20412;-74
2022/02/11 07:07:22;;;;;;;0.40;0.20;;;4.10;99.90;;;;;;4974226;28;20399;-74
2022/02/11 07:09:51;;;;;;;0.50;0.50;;;4.20;99.90;;;;;;4991221;28;20472;-74
2022/02/11 07:12:17;;;;;;;0.50;0.50;;;4.10;99.90;;;;;;4991389;28;20413;-74
2022/02/11 07:14:43;;;;;;;0.40;0.20;;;4.20;99.90;;;;;;4974622;28;20390;-74
2022/02/11 07:17:11;;;;;;;0.40;0.20;;;4.30;99.90;;;;;;4991718;28;20383;-74
2022/02/11 07:19:37;;;;;;;0.40;0.20;;;4.40;99.90;;;;;;4991244;28;20461;-74
2022/02/11 07:22:04;;;;;;;0.40;0.20;;;4.30;99.90;;;;;;4992014;28;20532;-75
2022/02/11 07:24:29;;;;;;;0.40;0.20;;;4.20;99.90;;;;;;4991220;28;20389;-74
2022/02/11 07:26:56;;;;;;;0.40;0.20;;;4.30;99.90;;;;;;4991921;28;20731;-75
2022/02/11 07:29:23;;;;;;;0.43;0.38;;;4.30;99.90;;;;;;4991556;28;20792;-75
2022/02/11 07:31:49;;;;;;;0.40;0.20;;;4.30;99.90;;;;;;4991344;28;20422;-74
2022/02/11 07:34:15;;;;;;;0.40;0.20;;;4.20;99.90;;;;;;4991600;28;20894;-76
2022/02/11 07:36:41;;;;;;;0.50;0.50;;;4.30;99.90;;;;;;4990880;28;20387;-76
2022/02/11 07:39:07;;;;;;;0.40;0.20;;;4.30;99.90;;;;;;4991575;28;20465;-75
2022/02/11 07:41:33;;;;;;;0.40;0.20;;;4.20;99.90;;;;;;4991135;28;20481;-74
2022/02/11 07:43:59;;;;;;;0.70;0.70;;;4.10;99.90;;;;;;4991620;28;20417;-75
2022/02/11 07:46:24;;;;;;;0.40;0.20;;;4.10;99.90;;;;;;4991201;28;20441;-74
2022/02/11 07:48:50;;;;;;;0.40;0.20;;;4.20;99.90;;;;;;4973022;28;20406;-74
2022/02/11 07:51:16;;;;;;;0.40;0.20;;;4.40;99.90;;;;;;4991460;28;20473;-74
2022/02/11 07:53:45;;;;;;;0.60;0.60;;;4.50;99.90;;;;;;4990311;28;20453;-73
2022/02/11 07:56:10;;;;;;;0.40;0.20;;;4.60;99.90;;;;;;4991487;28;20453;-74
2022/02/11 07:58:36;;;;;;;1.20;1.20;;;4.50;99.90;;;;;;4991456;28;20386;-73
2022/02/11 08:01:02;;;;;;;0.40;0.20;;;4.40;99.90;;;;;;4990534;28;21036;-73
2022/02/11 08:03:28;;;;;;;0.40;0.20;;;4.50;99.90;;;;;;4973388;28;20448;-73
2022/02/11 08:05:54;;;;;;;0.40;0.20;;;4.50;99.90;;;;;;4973162;28;20739;-73
2022/02/11 08:08:23;;;;;;;0.50;0.50;;;4.50;99.90;;;;;;4991485;28;20722;-73
2022/02/11 08:10:49;;;;;;;0.40;0.20;;;4.50;99.90;;;;;;4990131;28;20915;-73
2022/02/11 08:13:14;;;;;;;0.40;0.20;;;4.50;99.90;;;;;;4991322;28;20382;-73
2022/02/11 08:15:40;;;;;;;0.40;0.20;;;4.50;99.90;;;;;;4991664;28;20862;-74
2022/02/11 08:18:06;;;;;;;0.50;0.50;;;4.60;99.90;;;;;;4990825;28;20393;-75
2022/02/11 08:20:31;;;;;;;0.40;0.20;;;4.50;99.90;;;;;;4992385;28;20398;-75
2022/02/11 08:22:57;;;;;;;0.40;0.20;;;4.50;99.90;;;;;;4994068;28;20478;-75
2022/02/11 08:25:23;;;;;;;0.40;0.20;;;4.60;99.90;;;;;;4995222;28;20378;-76
2022/02/11 08:27:51;;;;;;;0.40;0.20;;;4.60;99.90;;;;;;4995070;28;20398;-75
2022/02/11 08:30:17;;;;;;;0.40;0.20;;;4.60;99.90;;;;;;4994713;28;20496;-75
2022/02/11 08:32:42;;;;;;;0.40;0.20;;;4.50;99.90;;;;;;4977783;28;20732;-75
2022/02/11 08:35:09;;;;;;;0.40;0.20;;;4.60;99.90;;;;;;4994490;28;20381;-74
2022/02/11 08:37:35;;;;;;;0.40;0.20;;;4.60;99.90;;;;;;4994985;28;20422;-74
2022/02/11 08:40:02;;;;;;;0.40;0.20;;;4.70;99.90;;;;;;4977497;28;20430;-73
2022/02/11 08:42:27;;;;;;;0.40;0.20;;;4.60;99.90;;;;;;4995061;28;20747;-75
2022/02/11 08:44:53;;;;;;;0.40;0.20;;;4.60;99.90;;;;;;4977290;28;20398;-75
2022/02/11 08:47:19;;;;;;;0.40;0.40;;;4.40;99.90;;;;;;4994197;28;20401;-75
2022/02/11 08:49:45;;;;;;;0.40;0.20;;;4.40;99.90;;;;;;4994554;28;20464;-75
2022/02/11 08:52:10;;;;;;;0.40;0.20;;;4.40;99.90;;;;;;4994085;28;20418;-74
2022/02/11 08:54:37;;;;;;;0.60;0.60;;;4.60;99.90;;;;;;4994498;28;20429;-75
2022/02/11 08:57:03;;;;;;;0.40;0.40;;;4.70;99.90;;;;;;4994686;28;20383;-75
2022/02/11 08:59:29;;;;;;;0.40;0.20;;;4.80;99.90;;;;;;4994107;28;20375;-76
2022/02/11 09:01:55;;;;;;;0.40;0.20;;;4.80;99.90;;;;;;4994264;28;20445;-75
2022/02/11 09:04:21;;;;;;;0.40;0.30;;;4.90;99.90;;;;;;4993739;28;20379;-76
2022/02/11 09:06:47;;;;;;;0.50;0.50;;;4.80;99.90;;;;;;4994600;28;20394;-76
2022/02/11 09:09:14;;;;;;;0.40;0.20;;;4.80;99.90;;;;;;4976165;28;20754;-77
2022/02/11 09:11:40;;;;;;;0.40;0.20;;;5.00;99.90;;;;;;4993512;28;20466;-76
2022/02/11 09:14:06;;;;;;;0.40;0.20;;;5.10;99.90;;;;;;4994058;28;20386;-77
2022/02/11 09:16:33;;;;;;;0.40;0.22;;;5.10;99.90;;;;;;4993632;28;20480;-76
2022/02/11 09:18:59;;;;;;;0.40;0.20;;;5.00;99.90;;;;;;4994296;28;20490;-76
2022/02/11 09:21:25;;;;;;;0.40;0.20;;;5.10;99.90;;;;;;4993255;28;20441;-75
2022/02/11 09:23:51;;;;;;;0.80;0.60;;;5.10;99.90;;;;;;4994207;28;20391;-77
2022/02/11 09:26:18;;;;;;;0.40;0.20;;;5.10;99.90;;;;;;4993801;28;20417;-77
2022/02/11 09:28:44;;;;;;;0.40;0.20;;;5.20;99.90;;;;;;4993313;28;20391;-77
2022/02/11 09:31:11;;;;;;;0.40;0.30;;;5.20;99.90;;;;;;4993958;28;20417;-77
2022/02/11 09:33:37;;;;;;;0.40;0.20;;;5.20;99.90;;;;;;4993357;28;20383;-76
2022/02/11 09:36:03;;;;;;;0.40;0.20;;;5.30;99.90;;;;;;4976557;28;20394;-74
2022/02/11 09:38:29;;;;;;;0.40;0.20;;;5.50;99.90;;;;;;4994370;28;20381;-74
2022/02/11 09:40:55;;;;;;;0.40;0.20;;;5.70;99.90;;;;;;4993787;28;20739;-75
2022/02/11 09:43:24;;;;;;;0.40;0.20;;;5.80;99.90;;;;;;4976781;28;20395;-74
2022/02/11 09:45:52;;;;;;;0.40;0.20;;;5.80;99.90;;;;;;4975961;28;20938;-74
2022/02/11 09:48:18;;;;;;;0.40;0.30;;;5.80;99.90;;;;;;4993667;28;20959;-74
2022/02/11 09:50:44;;;;;;;0.40;0.20;;;5.60;99.90;;;;;;4975027;28;20410;-74
2022/02/11 09:53:10;;;;;;;0.40;0.20;;;5.40;99.90;;;;;;4993692;28;20654;-75
2022/02/11 09:55:40;;;;;;;0.40;0.25;;;5.60;99.90;;;;;;4993814;28;20386;-74
2022/02/11 09:58:07;;;;;;;0.40;0.20;;;5.70;99.90;;;;;;4993232;28;20887;-74
2022/02/11 10:00:36;;;;;;;0.40;0.20;;;6.00;99.90;;;;;;4993699;28;20391;-75
2022/02/11 10:03:23;;;;;;;0.40;0.20;;;5.90;99.90;;;;;;4992929;28;20393;-75
2022/02/11 10:05:58;;;;;;;0.40;0.20;;;5.80;99.90;;;;;;4991956;28;20403;-75
2022/02/11 10:08:26;;;;;;;0.60;0.60;;;6.00;99.90;;;;;;4993640;28;20379;-74
2022/02/11 10:10:55;;;;;;;0.40;0.20;;;6.10;99.90;;;;;;4992701;28;20438;-74
2022/02/11 10:13:33;;;;;;;0.40;0.20;;;6.30;99.90;;;;;;4975912;28;20397;-74
2022/02/11 10:16:08;;;;;;;0.40;0.20;;;5.90;99.90;;;;;;4992682;28;20898;-74
2022/02/11 10:18:50;;;;;;;0.40;0.20;;;6.00;99.90;;;;;;4993267;28;20379;-74
2022/02/11 10:21:23;;;;;;;1.40;0.70;;;6.00;99.90;;;;;;4992560;28;20395;-74
2022/02/11 10:23:52;;;;;;;0.40;0.20;;;5.90;99.90;;;;;;4975247;28;20406;-74
2022/02/11 10:26:22;;;;;;;0.40;0.30;;;5.90;99.90;;;;;;4991381;28;20398;-75
2022/02/11 10:28:56;;;;;;;0.40;0.20;;;5.70;99.90;;;;;;4993064;28;20390;-75
2022/02/11 10:31:31;;;;;;;0.40;0.20;;;5.80;99.90;;;;;;4992684;28;20411;-75
2022/02/11 10:34:06;;;;;;;0.40;0.20;;;5.70;99.90;;;;;;4993049;28;20440;-74
2022/02/11 10:36:32;;;;;;;0.40;0.20;;;5.80;99.90;;;;;;4993032;28;20391;-74
2022/02/11 10:39:07;;;;;;;0.40;0.20;;;5.80;99.90;;;;;;4993071;28;20748;-75
2022/02/11 10:41:36;;;;;;;0.40;0.20;;;5.90;99.90;;;;;;4992911;28;20415;-75
2022/02/11 10:44:14;;;;;;;1.80;0.90;;;6.00;99.90;;;;;;4992162;28;20402;-74
2022/02/11 10:46:48;;;;;;;0.50;0.40;;;6.00;99.90;;;;;;4993123;28;20743;-74
2022/02/11 10:49:15;;;;;;;0.40;0.30;;;5.90;99.90;;;;;;4974327;28;20395;-74
2022/02/11 10:51:44;;;;;;;0.40;0.20;;;5.60;99.90;;;;;;4992693;28;20418;-74
2022/02/11 10:54:35;;;;;;;0.40;0.20;;;5.60;99.90;;;;;;4991880;28;20390;-74
2022/02/11 10:57:03;;;;;;;0.40;0.30;;;5.60;99.90;;;;;;4992768;28;20378;-74
2022/02/11 10:59:32;;;;;;;0.40;0.20;;;5.60;99.90;;;;;;4974191;28;20395;-74
2022/02/11 11:02:01;;;;;;;0.40;0.20;;;5.50;99.90;;;;;;4992422;28;20391;-73
2022/02/11 11:04:27;;;;;;;0.40;0.20;;;5.50;99.90;;;;;;4991443;28;20925;-73
2022/02/11 11:06:54;;;;;;;0.40;0.20;;;5.50;99.90;;;;;;4992468;28;20382;-73
2022/02/11 11:09:20;;;;;;;0.40;0.30;;;5.40;99.90;;;;;;4991090;28;20887;-73
2022/02/11 11:11:47;;;;;;;0.40;0.20;;;5.50;99.90;;;;;;4992758;28;20759;-73
2022/02/11 11:14:15;;;;;;;0.40;0.20;;;5.50;99.90;;;;;;4974757;28;20386;-73
2022/02/11 11:16:42;;;;;;;0.40;0.20;;;5.50;99.90;;;;;;4991383;28;20410;-73
2022/02/11 11:19:09;;;;;;;0.40;0.20;;;6.00;99.90;;;;;;4991667;28;20401;-73
2022/02/11 11:21:43;;;;;;;0.40;0.20;;;6.30;99.40;;;;;;4990827;28;20394;-73
2022/02/11 11:24:10;;;;;;;0.40;0.20;;;6.70;99.20;;;;;;4992115;28;20398;-73
2022/02/11 11:26:37;;;;;;;0.40;0.20;;;7.10;99.90;;;;;;4991373;28;20391;-73
2022/02/11 11:29:15;;;;;;;0.40;0.20;;;7.20;97.40;;;;;;4991954;28;20446;-74
2022/02/11 11:31:59;;;;;;;0.40;0.20;;;7.10;94.50;;;;;;4990896;28;20441;-73
2022/02/11 11:34:33;;;;;;;0.40;0.20;;;6.80;96.20;;;;;;4991983;28;20374;-72
2022/02/11 11:37:11;;;;;;;0.40;0.20;;;6.50;94.50;;;;;;4992013;28;20414;-73
2022/02/11 11:39:40;;;;;;;0.40;0.20;;;7.00;91.70;;;;;;4990951;28;20375;-71
2022/02/11 11:42:12;;;;;;;0.40;0.20;;;7.80;90.80;;;;;;4991927;28;20588;-71
2022/02/11 11:44:53;;;;;;;0.40;0.20;;;8.10;81.00;;;;;;4991109;28;20421;-71
2022/02/11 11:47:27;;;;;;;0.40;0.20;;;7.60;83.50;;;;;;4974685;28;20760;-72
2022/02/11 11:49:53;;;;;;;0.40;0.20;;;7.50;86.50;;;;;;4990866;28;20403;-72
2022/02/11 11:52:20;;;;;;;0.40;0.20;;;8.20;86.50;;;;;;4991530;28;20755;-71
2022/02/11 11:54:47;;;;;;;0.40;0.20;;;7.90;90.30;;;;;;4990255;28;20889;-71
2022/02/11 11:57:17;;;;;;;0.40;0.20;;;7.40;84.30;;;;;;4991613;28;20430;-72
2022/02/11 11:59:50;;;;;;;0.40;0.30;;;7.00;81.80;;;;;;4990815;28;20405;-71
2022/02/11 12:02:24;;;;;;;0.40;0.30;;;7.70;82.10;;;;;;4991560;28;20395;-71
2022/02/11 12:04:55;;;;;;;0.40;0.30;;;8.20;81.80;;;;;;4990765;28;20391;-71
2022/02/11 12:07:34;;;;;;;0.40;0.20;;;8.60;82.60;;;;;;4991507;28;20457;-72
2022/02/11 12:10:06;;;;;;;0.40;0.20;;;9.60;75.40;;;;;;4990270;28;20418;-71
2022/02/11 12:12:35;;;;;;;0.40;0.20;;;8.50;72.60;;;;;;4991536;28;20486;-72
2022/02/11 12:15:04;;;;;;;0.40;0.30;;;9.20;74.00;;;;;;4990435;28;20398;-72
2022/02/11 12:17:30;;;;;;;0.40;0.30;;;9.80;73.70;;;;;;4991272;28;20390;-72
2022/02/11 12:19:57;;;;;;;0.40;0.20;;;9.80;73.20;;;;;;4989824;28;20895;-72
2022/02/11 12:22:26;;;;;;;0.40;0.30;;;9.20;72.70;;;;;;4991401;28;20387;-72
2022/02/11 12:27:50;;;;;;;0.40;0.20;;;8.10;75.80;;;;;;4991446;28;20437;-72
2022/02/11 12:30:16;;;;;;;0.40;0.20;;;7.70;79.00;;;;;;4990493;28;20867;-72
2022/02/11 12:32:46;;;;;;;0.40;0.20;;;7.70;78.80;;;;;;4973914;28;20399;-73
2022/02/11 12:35:15;;;;;;;0.40;0.40;;;7.50;79.50;;;;;;4990418;28;20867;-73
2022/02/11 12:37:43;;;;;;;0.40;0.30;;;7.40;78.90;;;;;;4991317;28;20383;-74
2022/02/11 12:40:14;;;;;;;0.40;0.30;;;7.50;82.70;;;;;;4989889;28;20473;-73
2022/02/11 12:42:43;;;;;;;0.40;0.20;;;7.50;82.10;;;;;;4991132;28;20401;-73
2022/02/11 12:45:12;;;;;;;0.40;0.30;;;7.40;79.70;;;;;;4990478;28;20387;-72
2022/02/11 12:47:40;;;;;;;0.40;0.20;;;7.30;80.40;;;;;;4990127;28;20902;-72
2022/02/11 12:50:07;;;;;;;0.40;0.20;;;6.90;82.30;;;;;;4973088;28;20906;-72
2022/02/11 12:52:36;;;;;;;0.40;0.20;;;7.10;82.40;;;;;;4989558;28;20390;-71
2022/02/11 12:55:22;;;;;;;0.70;0.70;;;7.10;82.50;;;;;;4980601;28;20400;-73
2022/02/11 12:58:01;;;;;;;0.40;0.20;;;7.10;83.40;;;;;;4966370;28;20503;-73
2022/02/11 13:00:30;;;;;;;0.40;0.20;;;7.10;83.10;;;;;;4971129;28;20403;-73
2022/02/11 13:02:58;;;;;;;0.40;0.30;;;7.10;81.20;;;;;;4971593;28;20392;-72
2022/02/11 13:05:45;;;;;;;0.50;0.50;;;7.20;85.30;;;;;;4970790;28;20388;-71
2022/02/11 13:08:19;;;;;;;0.40;0.30;;;7.30;82.00;;;;;;4974947;28;20392;-72
2022/02/11 13:10:48;;;;;;;0.40;0.20;;;7.10;79.10;;;;;;4974535;28;20430;-72
2022/02/11 13:13:16;;;;;;;0.40;0.20;;;7.20;81.80;;;;;;4974893;28;20392;-71
2022/02/11 13:15:45;;;;;;;0.40;0.20;;;7.40;82.10;;;;;;4973927;28;20393;-71
2022/02/11 13:18:18;;;;;;;0.40;0.20;;;7.30;79.60;;;;;;4974592;28;20411;-71
2022/02/11 13:20:50;;;;;;;0.40;0.20;;;7.30;80.10;;;;;;4992737;28;20394;-71
2022/02/11 13:23:20;;;;;;;0.40;0.20;;;7.30;82.60;;;;;;4994313;28;20441;-70
2022/02/11 13:25:47;;;;;;;0.40;0.20;;;7.20;80.40;;;;;;4992702;28;20762;-70
2022/02/11 13:28:16;;;;;;;0.40;0.20;;;7.20;81.30;;;;;;4994161;28;20386;-70
2022/02/11 13:30:45;;;;;;;0.60;0.50;;;7.30;79.80;;;;;;4993374;28;20426;-71
2022/02/11 13:33:25;;;;;;;0.40;0.30;;;7.40;79.80;;;;;;4976438;28;20410;-71
2022/02/11 13:35:53;;;;;;;0.40;0.20;;;7.50;78.80;;;;;;4993310;28;20394;-71
2022/02/11 13:38:30;;;;;;;0.40;0.20;;;7.50;78.60;;;;;;4975786;28;20410;-71
2022/02/11 13:40:59;;;;;;;0.40;0.40;;;7.20;79.50;;;;;;4993809;28;20437;-71
2022/02/11 13:43:27;;;;;;;0.40;0.30;;;7.40;80.60;;;;;;4993549;28;20402;-71
2022/02/11 13:46:03;;;;;;;0.40;0.20;;;7.30;81.70;;;;;;4993484;28;20390;-70
2022/02/11 13:48:29;;;;;;;0.40;0.30;;;7.60;83.50;;;;;;4993687;28;20423;-70
2022/02/11 13:51:02;;;;;;;0.40;0.20;;;8.00;83.10;;;;;;4992895;28;20497;-71
2022/02/11 13:53:52;;;;;;;0.40;0.20;;;8.40;82.20;;;;;;4993744;28;20401;-70
2022/02/11 13:56:22;;;;;;;0.40;0.20;;;8.90;80.30;;;;;;4993785;28;20813;-71
2022/02/11 13:59:03;;;;;;;0.40;0.20;;;9.30;78.10;;;;;;4985268;28;20411;-71
2022/02/11 14:01:31;;;;;;;0.40;0.20;;;10.40;74.10;;;;;;4982359;28;20455;-71
2022/02/11 14:04:04;;;;;;;0.40;0.20;;;9.20;71.10;;;;;;4973054;28;20380;-71
2022/02/11 14:06:37;;;;;;;0.40;0.30;;;8.80;75.30;;;;;;4974196;28;20471;-70
2022/02/11 14:09:07;;;;;;;0.40;0.30;;;8.80;77.70;;;;;;4956014;28;20487;-70
2022/02/11 14:11:38;;;;;;;0.40;0.20;;;8.70;79.20;;;;;;4973043;28;20432;-70
2022/02/11 14:14:13;;;;;;;0.40;0.20;;;8.70;79.50;;;;;;4973171;28;20391;-71
2022/02/11 14:16:39;;;;;;;0.40;0.30;;;8.50;77.50;;;;;;4976016;28;20407;-70
2022/02/11 14:19:05;;;;;;;0.40;0.30;;;8.40;76.10;;;;;;4987310;28;20444;-71
2022/02/11 14:21:31;;;;;;;0.40;0.30;;;8.00;80.70;;;;;;4993487;28;20783;-70
2022/02/11 14:23:57;;;;;;;0.40;0.20;;;7.70;82.80;;;;;;4992105;28;20391;-70
2022/02/11 14:26:23;;;;;;;0.40;0.20;;;7.70;81.60;;;;;;4992503;28;20387;-71
2022/02/11 14:28:49;;;;;;;0.40;0.20;;;7.80;85.30;;;;;;4993217;28;20393;-71
2022/02/11 14:31:16;;;;;;;0.40;0.20;;;7.80;84.00;;;;;;4992180;28;20422;-70
2022/02/11 14:33:41;;;;;;;0.40;0.20;;;8.90;80.20;;;;;;4981334;28;20451;-71
2022/02/11 14:36:07;;;;;;;0.40;0.30;;;9.20;77.70;;;;;;4983655;28;20408;-71
2022/02/11 14:38:33;;;;;;;0.40;0.20;;;9.40;77.20;;;;;;4984383;28;20422;-70
2022/02/11 14:43:43;;;;;;;0.45;0.38;;;9.20;71.50;;;;;;4978565;28;20391;-70
2022/02/11 14:46:09;;;;;;;0.40;0.30;;;9.40;73.40;;;;;;4983534;28;20392;-70
2022/02/11 14:48:35;;;;;;;0.40;0.30;;;9.80;73.80;;;;;;4978055;28;20400;-70
2022/02/11 14:51:01;;;;;;;0.40;0.20;;;9.20;75.60;;;;;;4978984;28;20877;-70
2022/02/11 14:53:26;;;;;;;0.40;0.22;;;9.50;72.10;;;;;;4990385;28;20425;-70
2022/02/11 14:55:52;;;;;;;0.40;0.20;;;9.10;70.00;;;;;;4983953;28;20793;-70
2022/02/11 14:58:18;;;;;;;0.40;0.20;;;9.10;72.00;;;;;;4971901;28;20967;-70
2022/02/11 15:00:44;;;;;;;0.40;0.40;;;8.40;72.70;;;;;;4972951;28;20392;-71
2022/02/11 15:03:10;;;;;;;0.68;0.57;;;8.30;75.90;;;;;;4973224;28;20393;-70
2022/02/11 15:05:35;;;;;;;0.40;0.20;;;8.40;76.50;;;;;;4972977;28;20387;-70
2022/02/11 15:08:01;;;;;;;0.40;0.20;;;8.30;76.10;;;;;;4981604;28;20401;-70
2022/02/11 15:10:27;;;;;;;0.40;0.20;;;7.90;76.90;;;;;;4984424;28;20894;-71
2022/02/11 15:12:53;;;;;;;0.40;0.20;;;7.50;79.30;;;;;;4973953;28;20404;-70
2022/02/11 15:15:19;;;;;;;0.40;0.20;;;7.50;80.40;;;;;;4972490;28;20476;-71
2022/02/11 15:17:45;;;;;;;0.40;0.20;;;7.40;81.40;;;;;;4971311;28;21041;-70
2022/02/11 15:20:12;;;;;;;0.40;0.20;;;7.50;83.00;;;;;;4972746;28;20392;-71
2022/02/11 15:22:37;;;;;;;0.40;0.20;;;7.50;80.30;;;;;;4971918;28;20380;-70
2022/02/11 15:25:04;;;;;;;0.40;0.20;;;7.40;83.70;;;;;;4972782;28;20390;-71
2022/02/11 15:27:29;;;;;;;0.40;0.20;;;7.40;83.80;;;;;;4972257;28;20781;-70
2022/02/11 15:29:58;;;;;;;0.40;0.20;;;7.30;84.80;;;;;;4972474;28;20475;-70
2022/02/11 15:32:24;;;;;;;0.40;0.30;;;7.30;82.10;;;;;;4972558;28;20411;-69
2022/02/11 15:34:50;;;;;;;0.40;0.20;;;7.30;82.80;;;;;;4972134;28;20396;-71
2022/02/11 15:37:17;;;;;;;0.40;0.20;;;7.10;85.60;;;;;;4972209;28;20881;-71
2022/02/11 15:39:44;;;;;;;0.40;0.20;;;7.20;88.60;;;;;;4971656;28;20392;-71
2022/02/11 15:42:10;;;;;;;0.40;0.20;;;7.10;89.20;;;;;;4972472;28;20487;-71
2022/02/11 15:44:36;;;;;;;0.40;0.20;;;7.20;90.30;;;;;;4972225;28;20464;-71
2022/02/11 15:47:02;;;;;;;0.40;0.20;;;7.00;90.70;;;;;;4971784;28;20400;-71
2022/02/11 15:49:28;;;;;;;0.40;0.20;;;7.00;91.10;;;;;;4972663;28;20782;-71
2022/02/11 15:51:53;;;;;;;0.40;0.20;;;6.90;90.90;;;;;;4971483;28;20470;-71
2022/02/11 15:54:19;;;;;;;0.40;0.20;;;6.80;91.60;;;;;;4972035;28;20422;-71
2022/02/11 15:56:45;;;;;;;0.40;0.20;;;6.80;91.60;;;;;;4971767;28;20395;-70
2022/02/11 15:59:11;;;;;;;0.40;0.20;;;6.80;92.60;;;;;;4954727;28;20404;-70
2022/02/11 16:01:37;;;;;;;0.40;0.20;;;6.80;93.10;;;;;;4971856;28;20731;-71
2022/02/11 16:04:07;;;;;;;0.40;0.20;;;6.80;93.20;;;;;;4971288;28;20438;-71
2022/02/11 16:06:33;;;;;;;2.10;0.70;;;6.80;93.80;;;;;;4968056;28;20392;-72
2022/02/11 16:08:59;;;;;;;0.40;0.20;;;6.80;93.20;;;;;;4971097;28;20392;-71
2022/02/11 16:11:25;;;;;;;0.40;0.30;;;6.70;93.30;;;;;;4971419;28;20424;-71
2022/02/11 16:13:51;;;;;;;0.40;0.20;;;6.60;94.00;;;;;;4971736;28;20412;-71
2022/02/11 16:16:17;;;;;;;0.40;0.30;;;6.50;95.00;;;;;;4971826;28;20395;-72
2022/02/11 16:18:43;;;;;;;0.60;0.50;;;6.30;94.80;;;;;;4973999;28;20504;-70
2022/02/11 16:21:08;;;;;;;0.40;0.20;;;6.30;95.60;;;;;;4990208;28;20386;-72
2022/02/11 16:23:40;;;;;;;0.40;0.20;;;6.30;95.70;;;;;;4973817;28;20464;-71
2022/02/11 16:26:06;;;;;;;0.40;0.20;;;6.20;95.40;;;;;;4990680;28;20441;-71
2022/02/11 16:28:33;;;;;;;0.50;0.50;;;6.20;96.50;;;;;;4991267;28;20449;-71
2022/02/11 16:31:18;;;;;;;0.40;0.20;;;6.10;95.70;;;;;;4990988;28;20428;-71
2022/02/11 16:33:45;;;;;;;0.40;0.20;;;6.00;95.90;;;;;;4991082;28;20390;-71
2022/02/11 16:36:11;;;;;;;0.40;0.20;;;5.90;95.70;;;;;;4990502;28;20387;-71
2022/02/11 16:38:41;;;;;;;0.50;0.50;;;5.80;96.50;;;;;;4990714;28;20413;-71
2022/02/11 16:41:06;;;;;;;0.40;0.20;;;5.70;96.40;;;;;;4991601;28;20839;-70
2022/02/11 16:43:32;;;;;;;0.40;0.20;;;5.70;98.00;;;;;;4995304;28;20395;-70
2022/02/11 16:45:58;;;;;;;0.40;0.20;;;5.60;96.50;;;;;;4978054;28;20460;-70
2022/02/11 16:48:24;;;;;;;0.40;0.20;;;5.50;96.40;;;;;;4994718;28;20474;-70
2022/02/11 16:50:50;;;;;;;0.40;0.20;;;5.50;95.80;;;;;;4994755;28;20912;-70
2022/02/11 16:53:16;;;;;;;0.40;0.20;;;5.40;95.90;;;;;;4994166;28;20398;-70
2022/02/11 16:55:41;;;;;;;0.40;0.20;;;5.30;96.50;;;;;;4994428;28;20394;-71
2022/02/11 16:58:07;;;;;;;0.70;0.70;;;5.20;97.60;;;;;;4994062;28;20402;-71
2022/02/11 17:00:33;;;;;;;0.40;0.20;;;5.10;99.30;;;;;;4994032;28;20486;-71
2022/02/11 17:02:59;;;;;;;0.40;0.20;;;5.10;97.90;;;;;;4994452;28;20414;-72
2022/02/11 17:05:24;;;;;;;0.40;0.30;;;5.10;97.50;;;;;;4993969;28;20521;-71
2022/02/11 17:07:51;;;;;;;0.40;0.20;;;5.00;99.90;;;;;;4994577;28;20747;-71
2022/02/11 17:10:17;;;;;;;0.57;0.47;;;4.90;99.90;;;;;;4993612;28;20496;-71